Time;durP1;ratioP1;P1;durP2;ratioP2;P2;SDS_P1;SDS_P2;PMS_P1;PMS_P2;Temp;Humidity;BMP_temperature;BMP_pressure;BME280_temperature;BME280_humidity;BME280_pressure;Samples;Min_cycle;Max_cycle;Signal;HPM_P1;HPM_P2
2021/08/08 00:01:18;;;;;;;20.27;4.15;;;15.60;99.90;;;;;;5031154;28;20037;-62
2021/08/08 00:03:43;;;;;;;17.70;3.83;;;15.60;99.90;;;;;;5029744;28;20072;-61
2021/08/08 00:06:09;;;;;;;15.65;4.38;;;15.60;99.90;;;;;;5030905;28;20045;-62
2021/08/08 00:08:35;;;;;;;13.73;3.67;;;15.70;99.90;;;;;;5030297;28;20040;-64
2021/08/08 00:11:01;;;;;;;16.95;4.05;;;15.60;99.90;;;;;;5030727;28;20033;-61
2021/08/08 00:13:27;;;;;;;18.98;4.03;;;15.60;99.90;;;;;;5032251;28;20030;-61
2021/08/08 00:15:54;;;;;;;20.38;5.50;;;15.50;99.90;;;;;;5035003;28;20116;-61
2021/08/08 00:18:20;;;;;;;13.35;3.10;;;15.60;99.90;;;;;;5020435;28;20034;-61
2021/08/08 00:20:46;;;;;;;14.73;3.70;;;15.60;99.90;;;;;;5034547;28;20438;-61
2021/08/08 00:23:12;;;;;;;17.40;3.50;;;15.60;99.90;;;;;;5033840;28;20026;-63
2021/08/08 00:25:38;;;;;;;15.70;3.53;;;15.70;99.90;;;;;;5034857;28;20041;-61
2021/08/08 00:28:05;;;;;;;15.85;3.70;;;15.60;99.90;;;;;;5033493;28;20167;-60
2021/08/08 00:30:31;;;;;;;13.70;3.65;;;15.70;99.90;;;;;;5034903;28;20029;-60
2021/08/08 00:32:57;;;;;;;19.40;3.30;;;15.60;99.90;;;;;;5033679;28;20033;-63
2021/08/08 00:35:23;;;;;;;16.77;3.20;;;15.70;99.90;;;;;;5018557;28;20042;-61
2021/08/08 00:37:49;;;;;;;20.33;3.40;;;15.60;99.90;;;;;;5026957;28;20155;-61
2021/08/08 00:40:17;;;;;;;12.45;3.25;;;15.50;99.90;;;;;;5034561;28;20037;-62
2021/08/08 00:42:45;;;;;;;18.38;3.67;;;15.50;99.90;;;;;;5034382;28;20195;-63
2021/08/08 00:45:13;;;;;;;14.02;3.30;;;15.50;99.90;;;;;;5034107;28;20464;-62
2021/08/08 00:47:39;;;;;;;17.50;3.47;;;15.50;99.90;;;;;;5033888;28;20029;-60
2021/08/08 00:50:05;;;;;;;14.10;2.75;;;15.50;99.90;;;;;;5033433;28;20052;-61
2021/08/08 00:52:33;;;;;;;16.23;3.10;;;15.50;99.90;;;;;;5034253;28;20061;-63
2021/08/08 00:54:58;;;;;;;12.82;2.78;;;15.50;99.90;;;;;;5033700;28;20048;-61
2021/08/08 00:57:24;;;;;;;18.25;3.40;;;15.50;99.90;;;;;;5034045;28;20391;-61
2021/08/08 00:59:50;;;;;;;14.65;3.08;;;15.50;99.90;;;;;;5033465;28;20026;-61
2021/08/08 01:02:17;;;;;;;14.23;3.33;;;15.40;99.90;;;;;;5032948;28;20037;-61
2021/08/08 01:04:52;;;;;;;13.25;3.13;;;15.40;99.90;;;;;;5033360;28;20040;-60
2021/08/08 01:07:34;;;;;;;15.05;3.33;;;15.50;99.90;;;;;;5034292;28;20026;-60
2021/08/08 01:10:02;;;;;;;17.02;3.13;;;15.40;99.90;;;;;;5033183;28;20105;-62
2021/08/08 01:12:28;;;;;;;19.98;3.70;;;15.40;99.90;;;;;;5034346;28;20037;-60
2021/08/08 01:14:56;;;;;;;13.10;3.30;;;15.40;99.90;;;;;;5033208;28;20056;-61
2021/08/08 01:17:23;;;;;;;16.60;3.63;;;15.40;99.90;;;;;;5033814;28;20025;-62
2021/08/08 01:19:57;;;;;;;14.80;3.33;;;15.40;99.90;;;;;;5033068;28;20384;-62
2021/08/08 01:22:27;;;;;;;15.38;3.45;;;15.30;99.90;;;;;;5033789;28;20045;-60
2021/08/08 01:24:53;;;;;;;13.07;3.10;;;15.30;99.90;;;;;;5032838;28;20021;-61
2021/08/08 01:27:19;;;;;;;17.90;3.47;;;15.30;99.90;;;;;;5033701;28;20053;-60
2021/08/08 01:29:45;;;;;;;17.25;3.00;;;15.20;99.90;;;;;;5032648;28;20048;-61
2021/08/08 01:32:12;;;;;;;20.83;3.47;;;15.20;99.90;;;;;;5033304;28;20053;-61
2021/08/08 01:34:38;;;;;;;13.27;2.90;;;15.10;99.90;;;;;;5032668;28;20403;-61
2021/08/08 01:37:04;;;;;;;15.70;3.10;;;15.20;99.90;;;;;;5033191;28;20029;-63
2021/08/08 01:39:33;;;;;;;14.77;3.30;;;15.10;99.90;;;;;;5021395;28;20026;-61
2021/08/08 01:42:03;;;;;;;19.38;3.95;;;15.10;99.90;;;;;;5033032;28;20475;-61
2021/08/08 01:44:35;;;;;;;14.13;3.10;;;15.20;99.90;;;;;;5032705;28;20087;-61
2021/08/08 01:47:01;;;;;;;20.77;4.28;;;15.10;99.90;;;;;;5032946;28;20415;-62
2021/08/08 01:49:29;;;;;;;16.33;3.45;;;15.10;99.90;;;;;;5032627;28;20067;-61
2021/08/08 01:51:57;;;;;;;15.52;3.13;;;15.10;99.90;;;;;;5033308;28;20030;-62
2021/08/08 01:54:23;;;;;;;19.23;3.60;;;15.00;99.90;;;;;;5032165;28;20037;-63
2021/08/08 01:56:51;;;;;;;14.13;3.55;;;15.10;99.90;;;;;;5032509;28;20304;-62
2021/08/08 01:59:18;;;;;;;16.90;3.58;;;15.10;99.90;;;;;;5032276;28;20100;-61
2021/08/08 02:01:44;;;;;;;16.10;3.72;;;15.10;99.90;;;;;;5032758;28;20061;-61
2021/08/08 02:04:26;;;;;;;23.27;3.47;;;15.10;99.90;;;;;;5031955;28;20030;-62
2021/08/08 02:06:52;;;;;;;15.32;3.90;;;15.10;99.90;;;;;;5031824;28;20041;-61
2021/08/08 02:09:19;;;;;;;17.08;3.80;;;15.10;99.90;;;;;;5030883;28;20078;-62
2021/08/08 02:11:45;;;;;;;15.77;3.67;;;15.00;99.90;;;;;;5032906;28;20117;-63
2021/08/08 02:14:11;;;;;;;16.33;3.92;;;15.10;99.90;;;;;;5018483;28;20033;-61
2021/08/08 02:16:38;;;;;;;19.88;3.67;;;15.10;99.90;;;;;;5019044;28;20022;-62
2021/08/08 02:19:04;;;;;;;24.15;4.28;;;15.00;99.90;;;;;;5031830;28;20147;-63
2021/08/08 02:21:30;;;;;;;17.98;3.65;;;15.00;99.90;;;;;;5032642;28;20515;-62
2021/08/08 02:23:56;;;;;;;21.85;3.80;;;15.00;99.90;;;;;;5032054;28;20033;-61
2021/08/08 02:26:22;;;;;;;17.88;3.22;;;15.00;99.90;;;;;;5032474;28;20038;-60
2021/08/08 02:28:47;;;;;;;21.02;4.00;;;15.00;99.90;;;;;;5031586;28;20878;-61
2021/08/08 02:31:15;;;;;;;15.98;3.65;;;15.00;99.90;;;;;;5032061;28;20030;-62
2021/08/08 02:33:41;;;;;;;15.27;3.60;;;14.90;99.90;;;;;;5031781;28;20522;-62
2021/08/08 02:36:07;;;;;;;16.27;2.92;;;14.90;99.90;;;;;;5031899;28;20038;-61
2021/08/08 02:38:32;;;;;;;19.70;3.58;;;14.90;99.90;;;;;;5031580;28;20401;-63
2021/08/08 02:40:58;;;;;;;20.65;4.22;;;14.90;99.90;;;;;;5032012;28;20372;-62
2021/08/08 02:43:24;;;;;;;23.98;4.43;;;14.80;99.90;;;;;;5032632;28;20088;-61
2021/08/08 02:45:50;;;;;;;23.73;3.80;;;14.80;99.90;;;;;;5030145;28;20078;-62
2021/08/08 02:48:17;;;;;;;16.83;3.40;;;14.80;99.90;;;;;;5032472;28;20067;-61
2021/08/08 02:50:42;;;;;;;22.80;3.70;;;14.80;99.90;;;;;;5031354;28;20507;-62
2021/08/08 02:53:08;;;;;;;27.70;4.18;;;14.70;99.90;;;;;;5032257;28;20060;-61
2021/08/08 02:55:34;;;;;;;22.55;4.07;;;14.70;99.90;;;;;;5031440;28;20037;-62
2021/08/08 02:58:00;;;;;;;20.52;4.00;;;14.80;99.90;;;;;;5034061;28;20084;-61
2021/08/08 03:00:25;;;;;;;20.27;4.05;;;14.80;99.90;;;;;;5038237;28;20026;-60
2021/08/08 03:02:51;;;;;;;20.92;3.85;;;14.70;99.90;;;;;;5031376;28;20041;-62
2021/08/08 03:05:17;;;;;;;21.90;4.28;;;14.60;99.90;;;;;;5031439;28;20033;-61
2021/08/08 03:07:43;;;;;;;12.63;3.30;;;14.60;99.90;;;;;;5031650;28;20025;-61
2021/08/08 03:10:10;;;;;;;21.42;4.40;;;14.50;99.90;;;;;;5031052;28;20034;-62
2021/08/08 03:12:36;;;;;;;20.60;4.25;;;14.50;99.90;;;;;;5031585;28;20113;-61
2021/08/08 03:15:03;;;;;;;21.38;4.32;;;14.50;99.90;;;;;;5031080;28;20029;-60
2021/08/08 03:17:28;;;;;;;22.55;4.03;;;14.50;99.90;;;;;;5031579;28;20045;-60
2021/08/08 03:19:54;;;;;;;23.83;4.32;;;14.50;99.90;;;;;;5021852;28;20033;-61
2021/08/08 03:22:20;;;;;;;18.65;4.25;;;14.50;99.90;;;;;;5031434;28;20052;-60
2021/08/08 03:24:46;;;;;;;25.95;4.28;;;14.40;99.90;;;;;;5029365;28;20045;-63
2021/08/08 03:27:11;;;;;;;26.63;4.55;;;14.50;99.90;;;;;;5030140;28;20144;-61
2021/08/08 03:29:37;;;;;;;26.60;4.22;;;14.50;99.90;;;;;;5030306;28;20033;-60
2021/08/08 03:32:04;;;;;;;21.55;3.72;;;14.50;99.90;;;;;;5031274;28;20099;-62
2021/08/08 03:34:30;;;;;;;19.40;4.03;;;14.50;99.90;;;;;;5030522;28;20502;-62
2021/08/08 03:36:56;;;;;;;24.98;4.30;;;14.50;99.90;;;;;;5031325;28;20029;-61
2021/08/08 03:39:25;;;;;;;20.15;3.92;;;14.50;99.90;;;;;;5030504;28;20029;-61
2021/08/08 03:41:54;;;;;;;20.90;4.03;;;14.50;99.90;;;;;;5031685;28;20037;-63
2021/08/08 03:44:20;;;;;;;26.77;4.35;;;14.50;99.90;;;;;;5030427;28;20044;-62
2021/08/08 03:46:47;;;;;;;28.75;3.75;;;14.50;99.90;;;;;;5029159;28;20080;-62
2021/08/08 03:49:13;;;;;;;22.67;4.15;;;14.40;99.90;;;;;;5029987;28;20033;-62
2021/08/08 03:51:39;;;;;;;19.30;3.83;;;14.40;99.90;;;;;;5031322;28;20060;-62
2021/08/08 03:54:05;;;;;;;21.33;4.63;;;14.40;99.90;;;;;;5030300;28;20066;-62
2021/08/08 03:56:32;;;;;;;22.50;4.32;;;14.30;99.90;;;;;;5031074;28;20031;-61
2021/08/08 03:58:58;;;;;;;27.65;4.80;;;14.20;99.90;;;;;;5030499;28;20029;-62
2021/08/08 04:01:24;;;;;;;17.10;3.92;;;14.30;99.90;;;;;;5028533;28;20038;-63
2021/08/08 04:03:49;;;;;;;19.85;4.32;;;14.30;99.90;;;;;;5031000;28;20511;-62
2021/08/08 04:06:15;;;;;;;28.52;4.47;;;14.20;99.90;;;;;;5030220;28;20471;-61
2021/08/08 04:08:41;;;;;;;22.50;4.60;;;14.20;99.90;;;;;;5031380;28;20155;-60
2021/08/08 04:11:14;;;;;;;17.40;3.80;;;14.20;99.90;;;;;;5030066;28;20467;-62
2021/08/08 04:13:39;;;;;;;25.40;4.22;;;14.20;99.90;;;;;;5030870;28;20096;-61
2021/08/08 04:16:06;;;;;;;23.38;3.58;;;14.20;99.90;;;;;;5029811;28;20098;-63
2021/08/08 04:18:32;;;;;;;25.45;4.03;;;14.10;99.90;;;;;;5030774;28;20096;-61
2021/08/08 04:20:57;;;;;;;20.05;4.15;;;14.20;99.90;;;;;;5030464;28;20117;-62
2021/08/08 04:23:23;;;;;;;21.60;3.72;;;14.20;99.90;;;;;;5030572;28;20049;-62
2021/08/08 04:25:49;;;;;;;22.98;4.13;;;14.20;99.90;;;;;;5030117;28;20029;-61
2021/08/08 04:28:15;;;;;;;26.63;3.85;;;14.10;99.90;;;;;;5030513;28;20056;-62
2021/08/08 04:30:41;;;;;;;22.13;3.90;;;14.10;99.90;;;;;;5028501;28;20033;-62
2021/08/08 04:33:07;;;;;;;28.23;4.18;;;14.10;99.90;;;;;;5030280;28;20102;-60
2021/08/08 04:35:33;;;;;;;17.98;3.58;;;14.10;99.90;;;;;;5030047;28;20029;-61
2021/08/08 04:38:00;;;;;;;26.23;4.72;;;14.00;99.90;;;;;;5031176;28;20040;-62
2021/08/08 04:40:26;;;;;;;23.48;4.38;;;14.00;99.90;;;;;;5029752;28;20037;-62
2021/08/08 04:42:52;;;;;;;22.95;4.30;;;14.00;99.90;;;;;;5024360;28;20041;-61
2021/08/08 04:45:20;;;;;;;17.63;3.65;;;14.00;99.90;;;;;;5022962;28;20377;-62
2021/08/08 04:47:46;;;;;;;29.85;4.97;;;14.00;99.90;;;;;;5030379;28;20131;-62
2021/08/08 04:50:12;;;;;;;25.08;3.63;;;14.00;99.90;;;;;;5030144;28;20025;-61
2021/08/08 04:52:39;;;;;;;22.77;4.20;;;14.00;99.90;;;;;;5030516;28;20400;-62
2021/08/08 04:55:06;;;;;;;19.40;4.00;;;14.00;99.90;;;;;;5029592;28;20453;-62
2021/08/08 04:57:31;;;;;;;23.25;3.67;;;14.00;99.90;;;;;;5030387;28;20021;-62
2021/08/08 04:59:57;;;;;;;23.77;4.60;;;14.10;99.90;;;;;;5032006;28;20368;-62
2021/08/08 05:02:23;;;;;;;23.23;4.35;;;14.00;99.90;;;;;;5033989;28;20037;-61
2021/08/08 05:04:49;;;;;;;22.73;4.22;;;14.10;99.90;;;;;;5032992;28;20036;-61
2021/08/08 05:07:15;;;;;;;29.15;4.45;;;14.10;99.90;;;;;;5034212;28;20133;-61
2021/08/08 05:09:40;;;;;;;18.80;3.33;;;14.10;99.90;;;;;;5033535;28;20104;-61
2021/08/08 05:12:10;;;;;;;20.25;3.88;;;14.10;99.90;;;;;;5033934;28;20095;-61
2021/08/08 05:14:38;;;;;;;15.27;3.67;;;14.10;99.90;;;;;;5033106;28;20030;-61
2021/08/08 05:17:05;;;;;;;18.20;3.60;;;14.20;99.90;;;;;;5033689;28;20396;-61
2021/08/08 05:19:31;;;;;;;19.05;4.00;;;14.20;99.90;;;;;;5032431;28;20425;-60
2021/08/08 05:21:56;;;;;;;19.73;3.95;;;14.20;99.90;;;;;;5032428;28;20043;-60
2021/08/08 05:24:22;;;;;;;19.98;3.97;;;14.20;99.90;;;;;;5033904;28;20041;-60
2021/08/08 05:26:48;;;;;;;25.15;4.10;;;14.30;99.90;;;;;;5033087;28;20472;-61
2021/08/08 05:29:14;;;;;;;25.83;4.57;;;14.30;99.90;;;;;;5030677;28;20508;-61
2021/08/08 05:31:40;;;;;;;16.23;3.42;;;14.30;99.90;;;;;;5024123;28;20153;-61
2021/08/08 05:34:07;;;;;;;17.52;3.95;;;14.30;99.90;;;;;;5033346;28;20021;-63
2021/08/08 05:36:33;;;;;;;20.50;4.35;;;14.30;99.90;;;;;;5033016;28;20053;-61
2021/08/08 05:39:00;;;;;;;23.20;3.60;;;14.30;99.90;;;;;;5033565;28;20479;-62
2021/08/08 05:41:26;;;;;;;26.63;4.22;;;14.40;99.90;;;;;;5032703;28;20033;-62
2021/08/08 05:43:52;;;;;;;19.52;3.97;;;14.40;99.90;;;;;;5033361;28;20076;-61
2021/08/08 05:46:18;;;;;;;24.52;4.05;;;14.50;99.90;;;;;;5032752;28;20029;-62
2021/08/08 05:48:44;;;;;;;22.45;4.05;;;14.50;99.90;;;;;;5033033;28;20025;-61
2021/08/08 05:51:10;;;;;;;21.70;4.28;;;14.50;99.90;;;;;;5032785;28;20029;-61
2021/08/08 05:53:35;;;;;;;18.63;4.03;;;14.50;99.90;;;;;;5033239;28;20101;-62
2021/08/08 05:56:01;;;;;;;19.58;3.67;;;14.60;99.90;;;;;;5032375;28;20080;-61
2021/08/08 05:58:27;;;;;;;17.73;3.97;;;14.60;99.90;;;;;;5033400;28;20092;-61
2021/08/08 06:00:52;;;;;;;19.83;3.80;;;14.70;99.90;;;;;;5032267;28;20029;-62
2021/08/08 06:03:18;;;;;;;19.05;3.80;;;14.80;99.90;;;;;;5032960;28;20053;-63
2021/08/08 06:05:45;;;;;;;23.02;4.10;;;14.80;99.90;;;;;;5032207;28;20026;-61
2021/08/08 06:08:10;;;;;;;25.58;4.35;;;14.90;99.90;;;;;;5033130;28;20028;-61
2021/08/08 06:10:38;;;;;;;24.45;4.13;;;15.00;99.90;;;;;;5031340;28;20029;-61
2021/08/08 06:13:04;;;;;;;19.58;4.10;;;15.00;99.90;;;;;;5032764;28;20369;-62
2021/08/08 06:15:30;;;;;;;21.73;3.63;;;15.10;99.90;;;;;;5032132;28;20545;-63
2021/08/08 06:17:56;;;;;;;19.27;3.95;;;15.20;99.90;;;;;;5032660;28;20034;-60
2021/08/08 06:20:22;;;;;;;22.13;4.15;;;15.30;99.90;;;;;;5032158;28;20048;-62
2021/08/08 06:22:48;;;;;;;16.98;3.67;;;15.30;99.90;;;;;;5032573;28;20091;-59
2021/08/08 06:25:13;;;;;;;21.90;3.88;;;15.20;99.90;;;;;;5031724;28;20507;-62
2021/08/08 06:27:39;;;;;;;22.70;4.10;;;15.20;99.90;;;;;;5032483;28;20049;-59
2021/08/08 06:30:05;;;;;;;18.05;3.80;;;15.20;99.90;;;;;;5031814;28;20392;-61
2021/08/08 06:32:31;;;;;;;21.58;3.67;;;15.30;99.90;;;;;;5032229;28;20037;-61
2021/08/08 06:34:57;;;;;;;19.02;4.18;;;15.40;99.90;;;;;;5032339;28;20041;-61
2021/08/08 06:37:23;;;;;;;15.55;4.00;;;15.40;99.90;;;;;;5031543;28;20036;-61
2021/08/08 06:39:49;;;;;;;18.92;4.25;;;15.50;99.90;;;;;;5032422;28;20435;-60
2021/08/08 06:42:14;;;;;;;19.58;4.68;;;15.50;99.90;;;;;;5031980;28;20034;-60
2021/08/08 06:44:40;;;;;;;17.77;4.57;;;15.60;99.90;;;;;;5032304;28;20116;-62
2021/08/08 06:47:06;;;;;;;23.38;4.07;;;15.60;99.90;;;;;;5029794;28;20467;-61
2021/08/08 06:49:31;;;;;;;16.40;3.25;;;15.60;99.90;;;;;;5032124;28;20041;-60
2021/08/08 06:51:57;;;;;;;17.08;3.88;;;15.60;99.90;;;;;;5031694;28;20120;-60
2021/08/08 06:54:23;;;;;;;20.38;4.25;;;15.70;99.90;;;;;;5031936;28;20459;-61
2021/08/08 06:56:49;;;;;;;19.05;3.60;;;15.70;99.90;;;;;;5031573;28;20037;-61
2021/08/08 06:59:14;;;;;;;18.50;3.50;;;15.80;99.90;;;;;;5031886;28;20072;-61
2021/08/08 07:01:40;;;;;;;15.95;3.58;;;15.80;99.90;;;;;;5030988;28;20029;-61
2021/08/08 07:04:06;;;;;;;15.73;3.65;;;15.90;99.90;;;;;;5030442;28;20045;-61
2021/08/08 07:06:31;;;;;;;20.55;3.95;;;15.90;99.90;;;;;;5030980;28;20037;-62
2021/08/08 07:08:57;;;;;;;19.83;4.45;;;15.90;99.90;;;;;;5031949;28;20060;-61
2021/08/08 07:11:23;;;;;;;16.17;3.40;;;16.10;99.90;;;;;;5031000;28;20087;-61
2021/08/08 07:13:49;;;;;;;16.77;3.22;;;16.00;99.90;;;;;;5031844;28;20025;-61
2021/08/08 07:16:14;;;;;;;20.80;3.25;;;16.00;99.90;;;;;;5030900;28;20384;-62
2021/08/08 07:18:43;;;;;;;14.48;3.17;;;16.10;99.90;;;;;;5031549;28;20061;-61
2021/08/08 07:21:09;;;;;;;15.20;3.58;;;16.00;99.90;;;;;;5030936;28;20033;-61
2021/08/08 07:23:35;;;;;;;13.05;3.50;;;16.10;99.90;;;;;;5031445;28;20455;-62
2021/08/08 07:26:00;;;;;;;13.50;3.17;;;16.10;99.90;;;;;;5031069;28;20052;-60
2021/08/08 07:28:26;;;;;;;15.55;3.55;;;16.20;99.90;;;;;;5031396;28;20045;-60
2021/08/08 07:30:52;;;;;;;12.23;3.47;;;16.20;99.90;;;;;;5029808;28;20018;-60
2021/08/08 07:33:18;;;;;;;16.33;3.13;;;16.30;99.90;;;;;;5031135;28;20061;-61
2021/08/08 07:35:44;;;;;;;13.73;3.20;;;16.20;99.90;;;;;;5030521;28;20035;-59
2021/08/08 07:38:10;;;;;;;18.35;3.13;;;16.10;99.90;;;;;;5030246;28;20188;-61
2021/08/08 07:40:36;;;;;;;14.00;3.28;;;16.10;99.90;;;;;;5030527;28;20119;-62
2021/08/08 07:43:02;;;;;;;13.55;2.78;;;16.20;99.90;;;;;;5031250;28;20059;-61
2021/08/08 07:45:28;;;;;;;15.82;3.80;;;16.20;99.90;;;;;;5030869;28;20025;-62
2021/08/08 07:47:53;;;;;;;12.40;2.85;;;16.20;99.90;;;;;;5030455;28;20029;-61
2021/08/08 07:50:19;;;;;;;13.25;3.33;;;16.30;99.90;;;;;;5031122;28;20033;-61
2021/08/08 07:52:45;;;;;;;13.00;3.22;;;16.30;99.90;;;;;;5030313;28;20036;-60
2021/08/08 07:55:11;;;;;;;15.50;3.10;;;16.20;99.90;;;;;;5031158;28;20072;-61
2021/08/08 07:57:37;;;;;;;15.10;2.90;;;16.20;99.90;;;;;;5029551;28;20120;-63
2021/08/08 08:00:04;;;;;;;12.27;2.80;;;16.20;99.90;;;;;;5031367;28;20105;-61
2021/08/08 08:02:30;;;;;;;17.85;3.53;;;16.10;99.90;;;;;;5024682;28;20046;-61
2021/08/08 08:04:56;;;;;;;16.98;3.67;;;16.10;99.90;;;;;;5014080;28;20112;-61
2021/08/08 08:07:21;;;;;;;17.77;3.03;;;16.00;99.90;;;;;;5030283;28;20476;-62
2021/08/08 08:09:47;;;;;;;14.32;3.00;;;16.00;99.90;;;;;;5030755;28;20033;-62
2021/08/08 08:12:13;;;;;;;14.27;3.10;;;16.00;99.90;;;;;;5030550;28;20033;-60
2021/08/08 08:14:38;;;;;;;12.02;2.80;;;15.90;99.90;;;;;;5030952;28;20438;-61
2021/08/08 08:17:04;;;;;;;9.60;2.70;;;15.90;99.90;;;;;;5029755;28;20030;-61
2021/08/08 08:19:30;;;;;;;9.38;2.85;;;15.80;99.90;;;;;;5031019;28;20475;-59
2021/08/08 08:21:55;;;;;;;12.23;2.70;;;15.70;99.90;;;;;;5029888;28;20116;-60
2021/08/08 08:24:21;;;;;;;9.27;2.60;;;15.60;99.90;;;;;;5030950;28;20140;-60
2021/08/08 08:26:47;;;;;;;8.63;2.28;;;15.50;99.90;;;;;;5029567;28;20034;-63
2021/08/08 08:29:13;;;;;;;5.53;2.15;;;15.60;99.90;;;;;;5031170;28;20053;-60
2021/08/08 08:31:38;;;;;;;9.95;2.40;;;15.50;99.90;;;;;;5030035;28;20036;-60
2021/08/08 08:34:04;;;;;;;8.10;2.20;;;15.50;99.90;;;;;;5031927;28;20029;-62
2021/08/08 08:36:30;;;;;;;8.27;2.38;;;15.40;99.90;;;;;;5033904;28;20096;-60
2021/08/08 08:38:56;;;;;;;10.15;2.70;;;15.50;99.90;;;;;;5034506;28;20033;-61
2021/08/08 08:41:27;;;;;;;10.45;2.88;;;15.60;99.90;;;;;;5033722;28;20034;-61
2021/08/08 08:43:55;;;;;;;10.95;2.83;;;15.70;99.90;;;;;;5034678;28;20029;-62
2021/08/08 08:46:23;;;;;;;7.88;2.45;;;15.70;99.90;;;;;;5034102;28;20113;-61
2021/08/08 08:48:53;;;;;;;8.27;2.83;;;15.90;99.90;;;;;;5034198;28;20033;-59
2021/08/08 08:51:21;;;;;;;8.43;2.45;;;16.00;99.90;;;;;;5033711;28;20034;-60
2021/08/08 08:53:47;;;;;;;15.05;3.22;;;16.10;99.90;;;;;;5034415;28;20099;-60
2021/08/08 08:56:14;;;;;;;9.77;3.15;;;16.20;99.90;;;;;;5033403;28;20037;-61
2021/08/08 08:58:40;;;;;;;8.80;2.47;;;16.30;99.90;;;;;;5033569;28;20025;-61
2021/08/08 09:01:06;;;;;;;9.25;2.50;;;16.30;99.90;;;;;;5033214;28;20044;-60
2021/08/08 09:03:32;;;;;;;7.53;2.55;;;16.40;99.90;;;;;;5033777;28;20112;-62
2021/08/08 09:05:57;;;;;;;8.40;2.45;;;16.40;99.90;;;;;;5034045;28;20032;-62
2021/08/08 09:08:23;;;;;;;10.43;2.42;;;16.40;99.90;;;;;;5033594;28;20030;-60
2021/08/08 09:11:07;;;;;;;10.10;2.53;;;16.40;99.90;;;;;;5033839;28;20026;-60
2021/08/08 09:13:50;;;;;;;9.07;2.50;;;16.40;99.90;;;;;;5032326;28;20025;-62
2021/08/08 09:16:16;;;;;;;7.60;2.28;;;16.30;99.90;;;;;;5031532;28;20044;-60
2021/08/08 09:18:50;;;;;;;7.20;2.40;;;16.40;99.90;;;;;;5021586;28;20388;-60
2021/08/08 09:21:16;;;;;;;7.22;2.33;;;16.40;99.90;;;;;;5032949;28;20548;-62
2021/08/08 09:23:42;;;;;;;13.13;3.17;;;16.60;99.90;;;;;;5033497;28;20035;-61
2021/08/08 09:26:08;;;;;;;8.68;3.00;;;16.80;99.90;;;;;;5033618;28;20100;-62
2021/08/08 09:28:34;;;;;;;9.05;2.88;;;17.00;99.90;;;;;;5032801;28;20050;-60
2021/08/08 09:31:00;;;;;;;12.98;3.15;;;17.00;99.90;;;;;;5033701;28;20065;-62
2021/08/08 09:33:26;;;;;;;7.95;2.50;;;17.10;99.90;;;;;;5032800;28;20092;-61
2021/08/08 09:35:54;;;;;;;8.45;2.92;;;17.00;99.90;;;;;;5033266;28;20029;-62
2021/08/08 09:38:21;;;;;;;7.82;2.70;;;16.90;99.90;;;;;;5032785;28;20025;-62
2021/08/08 09:40:59;;;;;;;9.23;3.35;;;16.80;99.90;;;;;;5033169;28;20071;-60
2021/08/08 09:43:26;;;;;;;7.75;2.55;;;16.90;99.90;;;;;;5032671;28;20391;-59
2021/08/08 09:45:52;;;;;;;10.80;2.85;;;16.80;99.90;;;;;;5032236;28;20032;-62
2021/08/08 09:48:18;;;;;;;7.88;2.78;;;16.70;99.90;;;;;;5032519;28;20495;-60
2021/08/08 09:50:45;;;;;;;9.05;3.28;;;16.70;99.90;;;;;;5033217;28;20036;-61
2021/08/08 09:53:20;;;;;;;10.00;3.40;;;16.60;99.90;;;;;;5032433;28;20017;-62
2021/08/08 09:55:46;;;;;;;7.28;2.53;;;16.60;99.90;;;;;;5033347;28;20036;-62
2021/08/08 09:58:16;;;;;;;7.22;2.60;;;16.50;99.90;;;;;;5032631;28;20387;-61
2021/08/08 10:00:42;;;;;;;10.65;3.00;;;16.60;99.90;;;;;;5033214;28;20404;-61
2021/08/08 10:03:11;;;;;;;14.75;4.20;;;16.60;99.90;;;;;;5031361;28;20056;-60
2021/08/08 10:05:38;;;;;;;8.57;2.90;;;16.70;99.90;;;;;;5033071;28;20435;-62
2021/08/08 10:08:15;;;;;;;9.63;2.92;;;16.70;99.90;;;;;;5030917;28;20391;-60
2021/08/08 10:10:46;;;;;;;10.18;3.10;;;16.80;99.90;;;;;;5033219;28;20030;-61
2021/08/08 10:13:17;;;;;;;10.82;3.33;;;16.80;99.90;;;;;;5031771;28;20018;-61
2021/08/08 10:15:44;;;;;;;12.15;3.15;;;16.90;99.90;;;;;;5033056;28;20061;-61
2021/08/08 10:18:15;;;;;;;7.63;3.22;;;16.90;99.90;;;;;;5031416;28;20029;-62
2021/08/08 10:20:41;;;;;;;11.82;3.13;;;16.80;99.90;;;;;;5032691;28;20082;-63
2021/08/08 10:23:13;;;;;;;8.27;2.67;;;16.80;99.90;;;;;;5017684;28;20049;-62
2021/08/08 10:25:39;;;;;;;11.90;3.10;;;16.90;99.90;;;;;;5032926;28;20037;-62
2021/08/08 10:28:08;;;;;;;7.75;3.10;;;16.90;99.90;;;;;;5031656;28;20053;-61
2021/08/08 10:30:35;;;;;;;8.10;2.85;;;17.00;99.90;;;;;;5032396;28;20109;-61
2021/08/08 10:33:05;;;;;;;11.65;3.13;;;17.10;99.90;;;;;;5031457;28;20506;-60
2021/08/08 10:35:42;;;;;;;8.77;2.67;;;17.10;99.90;;;;;;5032224;28;20091;-62
2021/08/08 10:38:09;;;;;;;8.90;2.80;;;17.20;99.90;;;;;;5031573;28;20030;-61
2021/08/08 10:40:37;;;;;;;9.35;2.72;;;17.20;99.90;;;;;;5032219;28;20026;-61
2021/08/08 10:43:04;;;;;;;15.70;3.10;;;17.20;99.90;;;;;;5031625;28;20117;-61
2021/08/08 10:45:36;;;;;;;9.82;2.75;;;17.30;99.90;;;;;;5031829;28;20041;-60
2021/08/08 10:48:05;;;;;;;8.95;3.00;;;17.30;99.90;;;;;;5031236;28;20113;-63
2021/08/08 10:50:38;;;;;;;11.20;2.53;;;17.20;99.90;;;;;;5032199;28;20488;-62
2021/08/08 10:53:04;;;;;;;11.73;3.60;;;17.10;99.90;;;;;;5016888;28;20515;-60
2021/08/08 10:55:32;;;;;;;12.93;3.03;;;17.10;99.90;;;;;;5030957;28;20029;-62
2021/08/08 10:58:01;;;;;;;6.45;2.25;;;17.10;99.90;;;;;;5030759;28;20037;-62
2021/08/08 11:00:34;;;;;;;10.90;2.75;;;17.00;99.90;;;;;;5031797;28;20120;-60
2021/08/08 11:03:16;;;;;;;6.60;2.60;;;17.00;99.90;;;;;;5030589;28;20450;-60
2021/08/08 11:05:43;;;;;;;9.98;2.55;;;17.20;99.90;;;;;;5031925;28;20134;-61
2021/08/08 11:08:11;;;;;;;12.55;3.10;;;17.40;99.90;;;;;;5030675;28;20029;-60
2021/08/08 11:10:39;;;;;;;4.80;2.10;;;17.60;99.90;;;;;;5031961;28;20075;-61
2021/08/08 11:13:22;;;;;;;7.30;2.10;;;17.60;99.90;;;;;;5030716;28;20026;-62
2021/08/08 11:15:50;;;;;;;6.38;2.38;;;17.70;99.90;;;;;;5030245;28;20036;-61
2021/08/08 11:18:16;;;;;;;7.97;2.50;;;17.80;99.90;;;;;;5030555;28;20097;-63
2021/08/08 11:20:42;;;;;;;12.88;2.88;;;18.00;99.90;;;;;;5031723;28;20044;-61
2021/08/08 11:23:10;;;;;;;7.78;2.15;;;18.00;99.90;;;;;;5029842;28;20487;-60
2021/08/08 11:25:38;;;;;;;7.57;2.28;;;18.00;99.90;;;;;;5030395;28;20037;-60
2021/08/08 11:28:04;;;;;;;6.00;2.25;;;18.10;99.90;;;;;;5030465;28;20460;-61
2021/08/08 11:30:38;;;;;;;7.95;2.38;;;18.20;99.90;;;;;;5030858;28;20025;-62
2021/08/08 11:33:04;;;;;;;9.13;2.63;;;18.40;99.90;;;;;;5020429;28;20108;-61
2021/08/08 11:35:30;;;;;;;8.27;2.40;;;18.60;99.90;;;;;;5027262;28;20539;-60
2021/08/08 11:37:56;;;;;;;4.75;2.00;;;18.80;99.90;;;;;;5030527;28;20336;-60
2021/08/08 11:40:24;;;;;;;6.13;2.30;;;18.90;99.90;;;;;;5031162;28;20063;-63
2021/08/08 11:43:04;;;;;;;7.97;2.45;;;18.90;99.90;;;;;;5030188;28;20034;-61
2021/08/08 11:45:49;;;;;;;4.43;2.03;;;18.90;99.90;;;;;;5030898;28;20398;-60
2021/08/08 11:48:20;;;;;;;4.72;1.98;;;19.00;99.90;;;;;;5030319;28;20029;-61
2021/08/08 11:51:02;;;;;;;6.78;2.90;;;18.90;99.90;;;;;;5031003;28;20044;-62
2021/08/08 11:53:36;;;;;;;3.97;2.00;;;18.90;99.90;;;;;;5030336;28;20032;-63
2021/08/08 11:56:12;;;;;;;8.25;2.60;;;18.60;99.90;;;;;;5030918;28;20033;-63
2021/08/08 11:58:51;;;;;;;4.20;1.92;;;18.50;99.90;;;;;;5029357;28;20060;-61
2021/08/08 12:01:22;;;;;;;4.57;2.08;;;18.50;99.90;;;;;;5031080;28;20040;-59
2021/08/08 12:03:49;;;;;;;5.53;2.47;;;18.50;99.90;;;;;;5029619;28;20040;-62
2021/08/08 12:06:19;;;;;;;11.60;2.20;;;18.40;99.90;;;;;;5031080;28;20025;-62
2021/08/08 12:08:45;;;;;;;3.65;2.03;;;18.50;99.90;;;;;;5027916;28;20119;-60
2021/08/08 12:11:11;;;;;;;5.70;2.33;;;18.50;99.90;;;;;;5030538;28;20057;-61
2021/08/08 12:13:37;;;;;;;9.68;2.80;;;18.60;99.90;;;;;;5030049;28;20115;-60
2021/08/08 12:16:15;;;;;;;6.68;2.72;;;18.60;99.90;;;;;;5030757;28;20034;-61
2021/08/08 12:18:41;;;;;;;7.47;2.65;;;18.70;99.90;;;;;;5029978;28;20502;-62
2021/08/08 12:21:17;;;;;;;4.28;2.50;;;18.90;99.90;;;;;;5030631;28;20033;-62
2021/08/08 12:23:43;;;;;;;5.20;2.47;;;19.10;99.90;;;;;;5029990;28;20167;-60
2021/08/08 12:26:09;;;;;;;7.32;2.53;;;19.20;99.90;;;;;;5030471;28;20112;-60
2021/08/08 12:28:34;;;;;;;5.43;2.80;;;19.50;99.90;;;;;;5029398;28;20050;-61
2021/08/08 12:31:18;;;;;;;6.50;2.40;;;19.60;99.90;;;;;;5030461;28;20030;-62
2021/08/08 12:33:45;;;;;;;9.20;2.30;;;19.60;99.90;;;;;;5029533;28;20038;-63
2021/08/08 12:36:16;;;;;;;6.75;2.22;;;19.70;99.90;;;;;;5030706;28;20029;-61
2021/08/08 12:38:52;;;;;;;8.38;2.97;;;19.90;99.90;;;;;;5029824;28;20033;-62
2021/08/08 12:41:40;;;;;;;8.27;2.65;;;20.10;99.90;;;;;;5029356;28;20493;-62